createdAt,value
2018-12-15T00:01:19.023Z,-2.15
2018-12-15T00:03:44.947Z,-1.92
2018-12-15T00:06:17.810Z,-1.93
2018-12-15T00:08:43.699Z,-1.92
2018-12-15T00:11:09.562Z,-1.95
2018-12-15T00:13:36.515Z,-1.96
2018-12-15T00:16:02.415Z,-1.97
2018-12-15T00:18:28.271Z,-1.92
2018-12-15T00:21:01.113Z,-1.94
2018-12-15T00:23:27.033Z,-1.95
2018-12-15T00:25:52.932Z,-1.92
2018-12-15T00:28:18.808Z,-1.94
2018-12-15T00:30:44.679Z,-1.99
2018-12-15T00:33:10.527Z,-1.99
2018-12-15T00:35:36.424Z,-1.95
2018-12-15T00:38:02.307Z,-1.97
2018-12-15T00:40:28.207Z,-1.99
2018-12-15T00:42:54.239Z,-1.97
2018-12-15T00:45:20.269Z,-1.93
2018-12-15T00:47:46.166Z,-1.94
2018-12-15T00:50:12.900Z,-1.89
2018-12-15T00:52:38.761Z,-1.90
2018-12-15T00:55:04.673Z,-1.94
2018-12-15T00:57:30.584Z,-1.98
2018-12-15T00:59:56.451Z,-2.01
2018-12-15T01:02:22.373Z,-1.96
2018-12-15T01:04:48.634Z,-1.94
2018-12-15T01:07:14.520Z,-2.00
2018-12-15T01:09:40.423Z,-1.96
2018-12-15T01:12:06.336Z,-1.99
2018-12-15T01:14:32.204Z,-1.93
2018-12-15T01:16:58.109Z,-1.92
2018-12-15T01:19:23.997Z,-1.93
2018-12-15T01:21:49.882Z,-1.94
2018-12-15T01:24:15.736Z,-1.99
2018-12-15T01:26:41.646Z,-1.99
2018-12-15T01:29:07.566Z,-1.99
2018-12-15T01:31:33.429Z,-1.89
2018-12-15T01:33:59.314Z,-1.93
2018-12-15T01:36:25.196Z,-1.93
2018-12-15T01:38:51.073Z,-1.95
2018-12-15T01:41:16.957Z,-1.99
2018-12-15T01:43:42.849Z,-1.97
2018-12-15T01:46:08.704Z,-1.99
2018-12-15T01:48:34.617Z,-2.00
2018-12-15T01:51:00.639Z,-2.00
2018-12-15T01:53:26.543Z,-1.96
2018-12-15T01:55:52.411Z,-1.97
2018-12-15T01:58:18.279Z,-1.97
2018-12-15T02:00:44.152Z,-1.97
2018-12-15T02:03:10.038Z,-1.98
2018-12-15T02:05:35.980Z,-1.99
2018-12-15T02:08:01.888Z,-2.02
2018-12-15T02:10:27.791Z,-2.05
2018-12-15T02:12:53.738Z,-2.05
2018-12-15T02:15:19.591Z,-2.05
2018-12-15T02:17:45.436Z,-1.99
2018-12-15T02:20:11.461Z,-2.03
2018-12-15T02:22:37.343Z,-2.07
2018-12-15T02:25:03.506Z,-2.05
2018-12-15T02:27:29.367Z,-2.07
2018-12-15T02:29:55.282Z,-2.07
2018-12-15T02:32:21.136Z,-2.07
2018-12-15T02:34:47.044Z,-2.06
2018-12-15T02:37:12.918Z,-2.06
2018-12-15T02:39:38.784Z,-2.07
2018-12-15T02:42:04.816Z,-2.05
2018-12-15T02:44:30.741Z,-2.05
2018-12-15T02:46:56.638Z,-2.07
2018-12-15T02:49:22.536Z,-2.09
2018-12-15T02:51:48.424Z,-2.09
2018-12-15T02:54:14.617Z,-2.10
2018-12-15T02:56:40.495Z,-2.09
2018-12-15T02:59:06.369Z,-2.09
2018-12-15T03:01:32.240Z,-2.06
2018-12-15T03:03:58.107Z,-2.11
2018-12-15T03:06:23.978Z,-2.07
2018-12-15T03:08:49.877Z,-2.09
2018-12-15T03:11:15.788Z,-2.13
2018-12-15T03:13:41.649Z,-2.07
2018-12-15T03:16:07.644Z,-2.08
2018-12-15T03:18:33.556Z,-2.09
2018-12-15T03:20:59.957Z,-2.09
2018-12-15T03:23:25.838Z,-2.07
2018-12-15T03:25:51.692Z,-2.11
2018-12-15T03:28:17.566Z,-2.15
2018-12-15T03:30:43.435Z,-2.14
2018-12-15T03:33:09.397Z,-2.17
2018-12-15T03:35:35.294Z,-2.18
2018-12-15T03:38:01.193Z,-2.15
2018-12-15T03:40:27.291Z,-2.16
2018-12-15T03:42:53.185Z,-2.18
2018-12-15T03:45:19.104Z,-2.17
2018-12-15T03:47:45.017Z,-2.18
2018-12-15T03:50:10.907Z,-2.16
2018-12-15T03:52:36.755Z,-2.07
2018-12-15T03:55:02.828Z,-2.00
2018-12-15T03:57:35.605Z,-2.08
2018-12-15T04:00:01.518Z,-2.04
2018-12-15T04:02:27.426Z,-2.05
2018-12-15T04:04:53.404Z,-2.08
2018-12-15T04:07:19.306Z,-1.96
2018-12-15T04:09:45.187Z,-2.49
2018-12-15T04:12:11.073Z,-2.11
2018-12-15T04:14:36.968Z,-2.13
2018-12-15T04:17:03.007Z,-2.14
2018-12-15T04:19:28.939Z,-2.15
2018-12-15T04:21:58.848Z,-2.06
2018-12-15T04:24:24.781Z,-2.08
2018-12-15T04:26:50.667Z,-2.08
2018-12-15T04:29:16.523Z,-2.10
2018-12-15T04:31:42.457Z,-2.13
2018-12-15T04:34:08.474Z,-2.05
2018-12-15T04:36:34.387Z,-2.13
2018-12-15T04:39:00.263Z,-2.10
2018-12-15T04:41:26.174Z,-2.11
2018-12-15T04:43:52.407Z,-2.10
2018-12-15T04:46:18.293Z,-2.14
2018-12-15T04:48:51.148Z,-2.17
2018-12-15T04:51:17.053Z,-2.17
2018-12-15T04:53:42.931Z,-2.13
2018-12-15T04:56:08.860Z,-2.16
2018-12-15T04:58:34.729Z,-2.16
2018-12-15T05:01:00.621Z,-2.16
2018-12-15T05:03:26.517Z,-2.17
2018-12-15T05:05:52.423Z,-2.16
2018-12-15T05:08:18.295Z,-2.18
2018-12-15T05:10:44.214Z,-2.06
2018-12-15T05:13:10.128Z,-1.97
2018-12-15T05:15:36.005Z,-2.08
2018-12-15T05:18:01.890Z,-2.07
2018-12-15T05:20:34.889Z,-2.08
2018-12-15T05:23:00.765Z,-2.11
2018-12-15T05:25:26.652Z,-2.15
2018-12-15T05:27:52.562Z,-2.14
2018-12-15T05:30:18.414Z,-2.09
2018-12-15T05:32:44.395Z,-2.11
2018-12-15T05:35:10.311Z,-2.12
2018-12-15T05:37:36.361Z,-2.09
2018-12-15T05:40:02.902Z,-2.11
2018-12-15T05:42:28.854Z,-2.08
2018-12-15T05:44:54.745Z,-2.10
2018-12-15T05:47:20.602Z,-2.04
2018-12-15T05:49:46.483Z,-1.90
2018-12-15T05:52:12.385Z,-1.88
2018-12-15T05:54:38.293Z,-1.81
2018-12-15T05:57:04.191Z,-1.86
2018-12-15T05:59:30.117Z,-1.91
2018-12-15T06:01:56.132Z,-1.93
2018-12-15T06:04:22.016Z,-1.95
2018-12-15T06:06:47.934Z,-1.97
2018-12-15T06:09:20.703Z,-1.95
2018-12-15T06:11:46.601Z,-1.98
2018-12-15T06:14:12.482Z,-1.98
2018-12-15T06:16:38.358Z,-1.99
2018-12-15T06:19:04.231Z,-1.97
2018-12-15T06:21:30.105Z,-1.96
2018-12-15T06:23:55.993Z,-1.96
2018-12-15T06:26:21.867Z,-1.95
2018-12-15T06:28:47.758Z,-1.93
2018-12-15T06:31:13.658Z,-1.90
2018-12-15T06:33:39.516Z,-1.87
2018-12-15T06:36:05.502Z,-1.89
2018-12-15T06:38:31.399Z,-1.96
2018-12-15T06:40:57.306Z,-1.94
2018-12-15T06:43:23.562Z,-1.99
2018-12-15T06:45:49.826Z,-1.97
2018-12-15T06:48:15.832Z,-2.03
2018-12-15T06:50:41.774Z,-2.01
2018-12-15T06:53:07.684Z,-2.04
2018-12-15T06:55:33.643Z,-2.01
2018-12-15T06:57:59.590Z,-2.00
2018-12-15T07:00:25.461Z,-1.99
2018-12-15T07:02:51.339Z,-2.02
2018-12-15T07:05:17.319Z,-2.00
2018-12-15T07:07:43.223Z,-2.01
2018-12-15T07:10:09.092Z,-2.02
2018-12-15T07:12:34.979Z,-1.99
2018-12-15T07:15:00.819Z,-1.97
2018-12-15T07:17:26.703Z,-1.95
2018-12-15T07:19:52.607Z,-1.93
2018-12-15T07:22:18.601Z,-1.90
2018-12-15T07:24:44.493Z,-1.84
2018-12-15T07:27:10.403Z,-1.81
2018-12-15T07:29:36.303Z,-1.81
2018-12-15T07:32:02.234Z,-1.83
2018-12-15T07:34:28.169Z,-1.83
2018-12-15T07:36:54.092Z,-1.94
2018-12-15T07:39:19.976Z,-1.90
2018-12-15T07:41:45.897Z,-1.99
2018-12-15T07:44:11.759Z,-1.77
2018-12-15T07:46:37.618Z,-1.77
2018-12-15T07:49:03.523Z,-1.79
2018-12-15T07:51:29.458Z,-1.81
2018-12-15T07:53:55.511Z,-1.79
2018-12-15T07:56:23.435Z,-1.81
2018-12-15T07:58:49.339Z,-1.79
2018-12-15T08:01:15.227Z,-1.76
2018-12-15T08:03:41.131Z,-1.80
2018-12-15T08:06:07.106Z,-1.92
2018-12-15T08:08:32.967Z,-1.91
2018-12-15T08:11:05.123Z,-1.85
2018-12-15T08:13:32.161Z,-1.83
2018-12-15T08:15:58.116Z,-1.81
2018-12-15T08:18:24.127Z,-1.81
2018-12-15T08:20:50.027Z,-1.81
2018-12-15T08:23:15.957Z,-1.75
2018-12-15T08:25:41.853Z,-1.80
2018-12-15T08:28:07.757Z,-1.81
2018-12-15T08:30:33.647Z,-1.86
2018-12-15T08:32:59.506Z,-1.85
2018-12-15T08:35:25.439Z,-1.81
2018-12-15T08:37:51.362Z,-1.83
2018-12-15T08:40:17.284Z,-1.76
2018-12-15T08:42:43.229Z,-1.75
2018-12-15T08:45:09.195Z,-1.76
2018-12-15T08:47:42.086Z,-1.74
2018-12-15T08:52:40.063Z,-1.71
2018-12-15T08:55:06.094Z,-1.71
2018-12-15T08:57:32.378Z,-1.68
2018-12-15T08:59:58.283Z,-1.72
2018-12-15T09:02:24.296Z,-1.71
2018-12-15T09:04:50.233Z,-1.74
2018-12-15T09:07:16.645Z,-1.72
2018-12-15T09:09:42.652Z,-1.77
2018-12-15T09:12:08.526Z,-1.74
2018-12-15T09:14:34.435Z,-1.71
2018-12-15T09:17:00.379Z,-1.72
2018-12-15T09:19:26.302Z,-1.72
2018-12-15T09:21:52.197Z,-1.67
2018-12-15T09:24:18.195Z,-1.74
2018-12-15T09:26:44.074Z,-1.69
2018-12-15T09:29:09.973Z,-1.69
2018-12-15T09:31:35.903Z,-1.71
2018-12-15T09:34:01.809Z,-1.68
2018-12-15T09:36:27.736Z,-1.69
2018-12-15T09:38:53.658Z,-1.61
2018-12-15T09:41:19.644Z,-1.68
2018-12-15T09:43:45.542Z,-1.67
2018-12-15T09:46:11.479Z,-1.63
2018-12-15T09:48:37.410Z,-1.51
2018-12-15T09:51:03.389Z,-1.51
2018-12-15T09:53:29.277Z,-1.55
2018-12-15T09:55:55.175Z,-1.58
2018-12-15T09:58:21.099Z,-1.40
2018-12-15T10:00:47.030Z,-1.44
2018-12-15T10:03:12.980Z,-1.46
2018-12-15T10:05:38.879Z,-1.39
2018-12-15T10:08:04.760Z,-1.54
2018-12-15T10:10:30.699Z,-1.59
2018-12-15T10:12:56.575Z,-1.59
2018-12-15T10:15:22.494Z,-1.63
2018-12-15T10:17:48.346Z,-1.58
2018-12-15T10:20:14.228Z,-1.53
2018-12-15T10:22:40.170Z,-1.54
2018-12-15T10:25:06.215Z,-1.60
2018-12-15T10:27:32.213Z,-1.60
2018-12-15T10:30:04.214Z,-1.58
2018-12-15T10:32:57.126Z,-1.60
2018-12-15T10:35:23.278Z,-1.59
2018-12-15T10:37:49.146Z,-1.56
2018-12-15T10:40:15.279Z,-1.60
2018-12-15T10:42:41.184Z,-1.64
2018-12-15T10:45:07.325Z,-1.66
2018-12-15T10:47:33.467Z,-1.62
2018-12-15T10:49:59.364Z,-1.66
2018-12-15T10:52:25.248Z,-1.62
2018-12-15T10:54:51.092Z,-1.49
2018-12-15T10:57:16.989Z,-1.41
2018-12-15T10:59:42.883Z,-1.44
2018-12-15T11:02:09.999Z,-1.50
2018-12-15T11:04:36.047Z,-1.42
2018-12-15T11:07:02.242Z,-1.43
2018-12-15T11:09:28.281Z,-1.35
2018-12-15T11:11:54.229Z,-1.39
2018-12-15T11:14:23.089Z,-1.33
2018-12-15T11:16:48.949Z,-1.38
2018-12-15T11:19:15.120Z,-1.34
2018-12-15T11:21:44.263Z,-1.45
2018-12-15T11:24:10.425Z,-1.46
2018-12-15T11:26:37.276Z,-1.46
2018-12-15T11:29:03.251Z,-1.42
2018-12-15T11:31:29.117Z,-1.35
2018-12-15T11:33:54.998Z,-1.30
2018-12-15T11:36:20.988Z,-1.25
2018-12-15T11:38:46.957Z,-1.24
2018-12-15T11:41:12.839Z,-1.32
2018-12-15T11:43:38.699Z,-1.40
2018-12-15T11:46:04.806Z,-1.43
2018-12-15T11:48:30.727Z,-1.56
2018-12-15T11:50:56.752Z,-1.59
2018-12-15T11:53:29.636Z,-1.53
2018-12-15T11:55:55.575Z,-1.58
2018-12-15T11:58:21.598Z,-1.53
2018-12-15T12:00:47.691Z,-1.53
2018-12-15T12:03:13.566Z,-1.51
2018-12-15T12:05:39.417Z,-1.48
2018-12-15T12:08:05.303Z,-1.50
2018-12-15T12:10:31.268Z,-1.51
2018-12-15T12:12:57.137Z,-1.53
2018-12-15T12:15:23.020Z,-1.56
2018-12-15T12:17:48.867Z,-1.53
2018-12-15T12:20:14.751Z,-1.57
2018-12-15T12:22:40.640Z,-1.51
2018-12-15T12:25:06.839Z,-1.50
2018-12-15T12:27:32.714Z,-1.55
2018-12-15T12:29:58.707Z,-1.48
2018-12-15T12:32:24.538Z,-1.52
2018-12-15T12:34:50.424Z,-1.49
2018-12-15T12:37:16.323Z,-1.51
2018-12-15T12:39:42.197Z,-1.54
2018-12-15T12:42:08.065Z,-1.49
2018-12-15T12:44:33.944Z,-1.50
2018-12-15T12:46:59.838Z,-1.47
2018-12-15T12:49:32.853Z,-1.45
2018-12-15T12:51:58.748Z,-1.51
2018-12-15T12:54:24.608Z,-1.42
2018-12-15T12:56:50.466Z,-1.48
2018-12-15T12:59:16.342Z,-1.50
2018-12-15T13:01:42.230Z,-1.43
2018-12-15T13:06:33.849Z,-1.58
2018-12-15T13:08:59.736Z,-1.55
2018-12-15T13:11:25.582Z,-1.55
2018-12-15T13:13:51.455Z,-1.64
2018-12-15T13:16:17.359Z,-1.58
2018-12-15T13:18:43.311Z,-1.52
2018-12-15T13:21:09.197Z,-1.49
2018-12-15T13:23:35.060Z,-1.48
2018-12-15T13:26:00.951Z,-1.51
2018-12-15T13:28:26.978Z,-1.58
2018-12-15T13:30:52.935Z,-1.52
2018-12-15T13:33:28.776Z,-1.52
2018-12-15T13:35:54.794Z,-1.47
2018-12-15T13:38:20.807Z,-1.48
2018-12-15T13:40:53.499Z,-1.46
2018-12-15T13:43:19.402Z,-1.45
2018-12-15T13:45:45.315Z,-1.47
2018-12-15T13:48:11.238Z,-1.44
2018-12-15T13:50:37.160Z,-1.49
2018-12-15T13:53:03.119Z,-1.45
2018-12-15T13:55:29.055Z,-1.51
2018-12-15T13:57:55.341Z,-1.56
2018-12-15T14:00:21.196Z,-1.54
2018-12-15T14:02:47.059Z,-1.60
2018-12-15T14:05:12.936Z,-1.58
2018-12-15T14:07:38.900Z,-1.63
2018-12-15T14:10:04.919Z,-1.58
2018-12-15T14:12:30.783Z,-1.60
2018-12-15T14:14:56.660Z,-1.60
2018-12-15T14:20:16.884Z,-1.61
2018-12-15T14:22:43.154Z,-1.64
2018-12-15T14:25:09.046Z,-1.62
2018-12-15T14:27:34.927Z,-1.60
2018-12-15T14:30:00.885Z,-1.58
2018-12-15T14:32:26.763Z,-1.50
2018-12-15T14:34:52.697Z,-1.55
2018-12-15T14:37:18.667Z,-1.48
2018-12-15T14:39:44.660Z,-1.46
2018-12-15T14:42:10.578Z,-1.59
2018-12-15T14:44:36.487Z,-1.63
2018-12-15T14:47:02.469Z,-1.68
2018-12-15T14:49:28.387Z,-1.70
2018-12-15T14:51:54.260Z,-1.61
2018-12-15T14:54:20.122Z,-1.57
2018-12-15T14:56:46.024Z,-1.47
2018-12-15T14:59:11.886Z,-1.58
2018-12-15T15:01:37.791Z,-1.57
2018-12-15T15:04:03.660Z,-1.64
2018-12-15T15:06:29.607Z,-1.52
2018-12-15T15:08:55.509Z,-1.61
2018-12-15T15:11:21.514Z,-1.59
2018-12-15T15:13:47.382Z,-1.59
2018-12-15T15:16:13.262Z,-1.66
2018-12-15T15:18:46.235Z,-1.69
2018-12-15T15:21:12.099Z,-1.58
2018-12-15T15:23:37.964Z,-1.64
2018-12-15T15:26:03.863Z,-1.69
2018-12-15T15:28:29.763Z,-1.69
2018-12-15T15:30:55.765Z,-1.60
2018-12-15T15:33:22.277Z,-1.64
2018-12-15T15:35:48.182Z,-1.57
2018-12-15T15:38:14.073Z,-1.50
2018-12-15T15:40:39.981Z,-1.56
2018-12-15T15:43:05.876Z,-1.57
2018-12-15T15:45:31.758Z,-1.54
2018-12-15T15:47:57.692Z,-1.48
2018-12-15T15:50:23.617Z,-1.53
2018-12-15T15:52:49.610Z,-1.54
2018-12-15T15:55:15.531Z,-1.54
2018-12-15T15:57:41.599Z,-1.55
2018-12-15T16:00:09.533Z,-1.40
2018-12-15T16:02:35.430Z,-1.50
2018-12-15T16:05:02.373Z,-1.45
2018-12-15T16:07:28.573Z,-1.42
2018-12-15T16:10:01.534Z,-1.47
2018-12-15T16:12:27.442Z,-1.50
2018-12-15T16:14:53.351Z,-1.54
2018-12-15T16:17:19.345Z,-1.53
2018-12-15T16:19:45.335Z,-1.49
2018-12-15T16:22:11.254Z,-1.58
2018-12-15T16:24:37.291Z,-1.51
2018-12-15T16:27:03.478Z,-1.49
2018-12-15T16:29:29.376Z,-1.47
2018-12-15T16:31:55.288Z,-1.57
2018-12-15T16:34:21.178Z,-1.58
2018-12-15T16:36:47.363Z,-1.69
2018-12-15T16:39:13.269Z,-1.70
2018-12-15T16:41:42.231Z,-1.69
2018-12-15T16:44:07.094Z,-1.68
2018-12-15T16:46:32.989Z,-1.62
2018-12-15T16:48:58.878Z,-1.65
2018-12-15T16:51:24.761Z,-1.63
2018-12-15T16:53:50.643Z,-1.44
2018-12-15T16:56:23.531Z,-1.44
2018-12-15T16:58:49.446Z,-1.46
2018-12-15T17:01:15.301Z,-1.62
2018-12-15T17:03:41.202Z,-1.53
2018-12-15T17:06:07.060Z,-1.50
2018-12-15T17:08:33.098Z,-1.59
2018-12-15T17:10:59.102Z,-1.59
2018-12-15T17:13:24.988Z,-1.67
2018-12-15T17:15:50.890Z,-1.63
2018-12-15T17:18:16.810Z,-1.46
2018-12-15T17:20:42.717Z,-1.39
2018-12-15T17:23:08.613Z,-1.47
2018-12-15T17:25:34.562Z,-1.55
2018-12-15T17:28:00.500Z,-1.55
2018-12-15T17:30:26.370Z,-1.53
2018-12-15T17:32:52.266Z,-1.57
2018-12-15T17:35:18.173Z,-1.49
2018-12-15T17:37:44.164Z,-1.37
2018-12-15T17:40:10.178Z,-1.29
2018-12-15T17:42:36.063Z,-1.30
2018-12-15T17:45:02.593Z,-1.37
2018-12-15T17:47:28.478Z,-1.40
2018-12-15T17:49:54.337Z,-1.40
2018-12-15T17:52:20.207Z,-1.45
2018-12-15T17:54:46.070Z,-1.52
2018-12-15T17:57:11.979Z,-1.60
2018-12-15T17:59:37.857Z,-1.61
2018-12-15T18:02:03.900Z,-1.63
2018-12-15T18:04:29.919Z,-1.64
2018-12-15T18:06:55.812Z,-1.61
2018-12-15T18:09:21.690Z,-1.64
2018-12-15T18:11:47.596Z,-1.62
2018-12-15T18:14:13.473Z,-1.70
2018-12-15T18:16:39.332Z,-1.70
2018-12-15T18:19:05.314Z,-1.68
2018-12-15T18:21:32.186Z,-1.58
2018-12-15T18:23:58.109Z,-1.52
2018-12-15T18:26:23.996Z,-1.59
2018-12-15T18:28:49.877Z,-1.64
2018-12-15T18:31:15.752Z,-1.68
2018-12-15T18:33:42.219Z,-1.71
2018-12-15T18:36:08.093Z,-1.74
2018-12-15T18:38:33.993Z,-1.72
2018-12-15T18:40:59.865Z,-1.63
2018-12-15T18:43:25.835Z,-1.63
2018-12-15T18:45:51.733Z,-1.68
2018-12-15T18:48:17.645Z,-1.65
2018-12-15T18:50:43.570Z,-1.77
2018-12-15T18:53:09.483Z,-1.64
2018-12-15T18:55:35.336Z,-1.71
2018-12-15T18:58:01.295Z,-1.77
2018-12-15T19:00:28.389Z,-1.60
2018-12-15T19:02:54.462Z,-1.56
2018-12-15T19:05:21.714Z,-1.64
2018-12-15T19:07:47.617Z,-1.61
2018-12-15T19:10:14.157Z,-1.66
2018-12-15T19:12:40.039Z,-1.62
2018-12-15T19:15:07.257Z,-1.65
2018-12-15T19:17:34.082Z,-1.82
2018-12-15T19:20:00.018Z,-1.86
2018-12-15T19:22:25.937Z,-1.85
2018-12-15T19:24:51.837Z,-1.74
2018-12-15T19:27:17.742Z,-1.76
2018-12-15T19:29:43.650Z,-1.75
2018-12-15T19:32:09.585Z,-1.79
2018-12-15T19:34:35.443Z,-1.86
2018-12-15T19:37:01.328Z,-1.82
2018-12-15T19:39:27.609Z,-1.75
2018-12-15T19:41:53.517Z,-1.69
2018-12-15T19:44:19.385Z,-1.68
2018-12-15T19:46:45.293Z,-1.71
2018-12-15T19:49:11.211Z,-1.75
2018-12-15T19:51:37.099Z,-1.60
2018-12-15T19:54:03.105Z,-1.78
2018-12-15T19:56:28.997Z,-1.68
2018-12-15T19:58:54.902Z,-1.73
2018-12-15T20:01:21.060Z,-1.86
2018-12-15T20:03:47.464Z,-1.95
2018-12-15T20:06:13.471Z,-2.02
2018-12-15T20:08:40.069Z,-2.02
2018-12-15T20:11:07.648Z,-2.09
2018-12-15T20:13:33.650Z,-2.09
2018-12-15T20:15:59.607Z,-2.17
2018-12-15T20:18:25.519Z,-2.17
2018-12-15T20:20:51.389Z,-2.18
2018-12-15T20:23:17.314Z,-2.20
2018-12-15T20:25:43.280Z,-2.12
2018-12-15T20:28:09.168Z,-2.17
2018-12-15T20:30:35.859Z,-2.10
2018-12-15T20:33:02.720Z,-2.00
2018-12-15T20:35:28.895Z,-1.99
2018-12-15T20:37:56.533Z,-2.02
2018-12-15T20:40:22.498Z,-2.00
2018-12-15T20:42:48.371Z,-2.01
2018-12-15T20:45:14.435Z,-2.03
2018-12-15T20:47:40.477Z,-2.02
2018-12-15T20:50:06.564Z,-2.04
2018-12-15T20:52:32.445Z,-1.97
2018-12-15T20:54:58.372Z,-1.88
2018-12-15T20:57:24.336Z,-1.95
2018-12-15T20:59:50.226Z,-2.02
2018-12-15T21:02:16.076Z,-2.21
2018-12-15T21:04:42.161Z,-2.03
2018-12-15T21:07:08.053Z,-2.17
2018-12-15T21:09:33.945Z,-2.17
2018-12-15T21:11:59.809Z,-2.14
2018-12-15T21:14:25.730Z,-2.15
2018-12-15T21:16:51.596Z,-2.00
2018-12-15T21:19:17.473Z,-2.03
2018-12-15T21:21:49.293Z,-2.00
2018-12-15T21:24:11.233Z,-2.11
2018-12-15T21:26:37.138Z,-2.09
2018-12-15T21:29:03.025Z,-2.03
2018-12-15T21:31:28.932Z,-2.05
2018-12-15T21:33:54.841Z,-1.79
2018-12-15T21:36:20.743Z,-1.87
2018-12-15T21:38:46.650Z,-1.94
2018-12-15T21:41:12.520Z,-2.01
2018-12-15T21:43:38.536Z,-2.08
2018-12-15T21:46:04.427Z,-1.95
2018-12-15T21:48:30.302Z,-1.90
2018-12-15T21:50:56.205Z,-1.99
2018-12-15T21:53:22.105Z,-1.90
2018-12-15T21:55:48.022Z,-1.94
2018-12-15T21:58:15.199Z,-2.15
2018-12-15T22:00:41.114Z,-2.01
2018-12-15T22:03:07.055Z,-1.88
2018-12-15T22:05:32.947Z,-1.87
2018-12-15T22:07:58.854Z,-1.91
2018-12-15T22:10:24.752Z,-2.02
2018-12-15T22:12:50.697Z,-2.09
2018-12-15T22:15:16.698Z,-2.11
2018-12-15T22:17:42.571Z,-1.98
2018-12-15T22:20:09.994Z,-1.85
2018-12-15T22:22:36.088Z,-1.93
2018-12-15T22:25:02.469Z,-2.14
2018-12-15T22:27:28.355Z,-2.32
2018-12-15T22:29:54.275Z,-2.47
2018-12-15T22:32:20.170Z,-2.49
2018-12-15T22:34:46.085Z,-2.57
2018-12-15T22:37:12.014Z,-2.57
2018-12-15T22:39:37.870Z,-2.58
2018-12-15T22:42:03.719Z,-2.74
2018-12-15T22:44:29.613Z,-2.74
2018-12-15T22:46:55.547Z,-2.73
2018-12-15T22:49:21.456Z,-2.74
2018-12-15T22:51:54.324Z,-2.75
2018-12-15T22:54:20.668Z,-2.76
2018-12-15T22:56:46.590Z,-2.79
2018-12-15T22:59:12.472Z,-2.81
2018-12-15T23:01:44.973Z,-2.84
2018-12-15T23:04:11.119Z,-2.88
2018-12-15T23:06:37.044Z,-2.91
2018-12-15T23:09:04.917Z,-2.89
2018-12-15T23:11:31.485Z,-2.91
2018-12-15T23:13:57.457Z,-2.91
2018-12-15T23:16:24.613Z,-2.94
2018-12-15T23:18:50.531Z,-3.05
2018-12-15T23:21:17.979Z,-3.05
2018-12-15T23:23:43.897Z,-3.15
2018-12-15T23:26:09.854Z,-3.20
2018-12-15T23:28:35.695Z,-3.19
2018-12-15T23:31:01.882Z,-3.17
2018-12-15T23:33:27.798Z,-3.19
2018-12-15T23:35:53.730Z,-3.22
2018-12-15T23:38:19.590Z,-3.25
2018-12-15T23:40:54.122Z,-3.27
2018-12-15T23:43:20.026Z,-3.25
2018-12-15T23:45:46.019Z,-3.34
2018-12-15T23:48:11.906Z,-3.38
2018-12-15T23:50:37.771Z,-3.39
2018-12-15T23:53:03.663Z,-3.40
2018-12-15T23:55:29.490Z,-3.42
2018-12-15T23:57:55.498Z,-3.45
